Pevek, Russia
Current Conditions -  °F | °C
As of 4:55 AM on Friday 24 Oct 2014 (Local Time) from PALU Reporting Station
Broken Clouds Broken Clouds  
Wind Chill:   Ceiling: 3500
Heat Index: 19°   Visibility: 10mi
Dew Point: 12°   Wind: 17mph
Humidity: 74%   Direction: 100°E
Pressure: 29.75"   Gusts: NA
Location:  69.7°N, 170.38°E
Report Text: PALU 231655Z 10015KT 10SM BKN035 M07/M11 A2975 RMK AO2A SLP074 LSR13
Loading
Personal Weather Stations






























Interactive Weather Map New forecast layout! Learn more

10-Day Weather Forecast

Advertisements
Track Severe Weather on mobile